Time;durP1;ratioP1;P1;durP2;ratioP2;P2;SDS_P1;SDS_P2;PMS_P1;PMS_P2;Temp;Humidity;BMP_temperature;BMP_pressure;BME280_temperature;BME280_humidity;BME280_pressure;Samples;Min_cycle;Max_cycle;Signal;HPM_P1;HPM_P2
2023/06/23 00:00:48;;;;;;;20.27;3.45;;;;;;;21.69;65.26;94480.09;5135677;27;20073;-84
2023/06/23 00:03:13;;;;;;;38.00;5.13;;;;;;;21.72;64.29;94480.19;5135348;27;20503;-83
2023/06/23 00:05:38;;;;;;;33.08;5.07;;;;;;;21.68;64.98;94478.56;5134750;27;20039;-84
2023/06/23 00:08:05;;;;;;;17.38;4.13;;;;;;;21.67;67.91;94479.66;5118113;27;20039;-84
2023/06/23 00:10:30;;;;;;;24.30;4.47;;;;;;;21.59;63.88;94463.41;5135337;27;20046;-83
2023/06/23 00:12:57;;;;;;;17.98;3.67;;;;;;;21.70;65.13;94458.44;5136497;27;20142;-84
2023/06/23 00:15:22;;;;;;;26.30;4.13;;;;;;;21.54;68.95;94455.66;5117800;27;20119;-83
2023/06/23 00:20:54;;;;;;;18.17;4.28;;;;;;;21.50;66.87;94441.44;5120746;27;20039;-84
2023/06/23 00:23:20;;;;;;;19.83;3.95;;;;;;;21.57;67.36;94441.66;5135330;27;20039;-83
2023/06/23 00:26:07;;;;;;;13.35;3.92;;;;;;;21.52;70.84;94449.09;5135774;27;20028;-83
2023/06/23 00:28:33;;;;;;;16.27;3.80;;;;;;;21.62;66.37;94448.66;5134844;27;20130;-84
2023/06/23 00:30:58;;;;;;;21.50;3.75;;;;;;;21.57;67.28;94444.31;5136628;27;20070;-84
2023/06/23 00:33:42;;;;;;;19.02;3.78;;;;;;;21.73;64.66;94444.44;5120326;27;20031;-84
2023/06/23 00:36:08;;;;;;;23.92;3.92;;;;;;;21.97;63.52;94466.06;5120027;27;20026;-84
2023/06/23 00:38:52;;;;;;;17.95;3.72;;;;;;;22.35;58.74;94475.47;5120112;27;20137;-83
2023/06/23 00:41:17;;;;;;;25.02;4.93;;;;;;;22.64;57.50;94492.28;5124161;27;20348;-84
2023/06/23 00:43:49;;;;;;;20.92;4.10;;;;;;;22.74;57.49;94505.16;5127971;27;20027;-84
2023/06/23 00:46:20;;;;;;;23.77;3.55;;;;;;;22.55;59.05;94508.47;5128472;27;20042;-84
2023/06/23 00:48:46;;;;;;;26.25;4.18;;;;;;;22.44;59.13;94504.69;5126758;27;20095;-84
2023/06/23 00:51:12;;;;;;;27.52;4.72;;;;;;;22.54;59.09;94508.81;5127833;27;20146;-84
2023/06/23 00:53:38;;;;;;;16.48;3.95;;;;;;;22.68;56.49;94514.53;5128193;27;20062;-83
2023/06/23 00:56:24;;;;;;;23.77;4.30;;;;;;;22.67;56.59;94506.84;5102683;27;20035;-83
2023/06/23 01:04:22;;;;;;;33.80;4.57;;;;;;;22.59;55.48;94537.94;5108158;27;20038;-84
2023/06/23 01:07:01;;;;;;;17.70;3.83;;;;;;;22.58;54.50;94520.34;5120880;27;20357;-84
2023/06/23 01:09:35;;;;;;;26.08;3.78;;;;;;;22.46;54.84;94521.91;5119625;27;20027;-84
2023/06/23 01:15:13;;;;;;;18.15;4.43;;;;;;;22.26;54.26;94520.97;5122366;27;20085;-83
2023/06/23 01:20:49;;;;;;;14.40;3.50;;;;;;;22.27;53.85;94532.44;5121917;27;20034;-84
2023/06/23 01:23:20;;;;;;;18.20;3.92;;;;;;;22.18;54.10;94522.69;5136705;27;20027;-83
2023/06/23 01:25:53;;;;;;;14.80;3.60;;;;;;;22.15;54.76;94527.91;5117948;27;20153;-83
2023/06/23 01:28:54;;;;;;;15.13;3.92;;;;;;;22.02;55.40;94529.81;5136404;27;20054;-83
2023/06/23 01:31:31;;;;;;;19.92;3.85;;;;;;;21.99;55.05;94517.19;5118208;28;20035;-83
2023/06/23 01:34:35;;;;;;;15.10;3.47;;;;;;;21.97;55.39;94516.72;5119231;28;20031;-83
2023/06/23 01:37:23;;;;;;;22.20;3.97;;;;;;;21.91;55.58;94518.84;5148607;27;20026;-84
2023/06/23 01:39:55;;;;;;;13.80;4.25;;;;;;;21.87;56.70;94516.06;5138661;27;20023;-83
2023/06/23 01:42:25;;;;;;;12.40;3.50;;;;;;;21.85;56.00;94504.19;5134206;27;20087;-83
2023/06/23 01:44:55;;;;;;;17.08;3.22;;;;;;;21.81;56.99;94504.09;5138435;27;20030;-83
2023/06/23 01:47:25;;;;;;;15.98;3.50;;;;;;;21.59;58.18;94498.06;5121938;27;20037;-84
2023/06/23 01:52:37;;;;;;;8.98;3.15;;;;;;;21.52;58.01;94481.88;5141225;27;20133;-84
2023/06/23 01:55:23;;;;;;;13.23;3.58;;;;;;;21.54;58.96;94484.97;5139620;27;20368;-83
2023/06/23 01:58:07;;;;;;;10.68;3.65;;;;;;;21.36;63.11;94495.09;5142950;27;20045;-84
2023/06/23 02:00:33;;;;;;;17.50;4.03;;;;;;;21.17;63.16;94488.41;5142717;27;20041;-83
2023/06/23 02:02:59;;;;;;;21.30;4.20;;;;;;;21.28;61.10;94482.63;5142469;27;20034;-83
2023/06/23 02:05:26;;;;;;;16.08;3.72;;;;;;;21.47;60.31;94476.75;5125203;27;20134;-84
2023/06/23 02:07:52;;;;;;;9.13;3.60;;;;;;;21.59;58.93;94484.75;5142509;27;20037;-83
2023/06/23 02:10:18;;;;;;;23.15;3.75;;;;;;;21.68;59.42;94478.56;5142261;27;20026;-83
2023/06/23 02:12:45;;;;;;;28.85;4.60;;;;;;;21.53;62.64;94477.31;5125029;27;20370;-83
2023/06/23 02:15:13;;;;;;;15.10;3.97;;;;;;;21.54;62.03;94473.53;5142033;27;20034;-84
2023/06/23 02:17:38;;;;;;;14.13;3.75;;;;;;;21.66;61.05;94478.09;5142621;27;20431;-83
2023/06/23 02:20:16;;;;;;;16.15;3.20;;;;;;;21.64;60.70;94486.41;5142230;27;20069;-83
2023/06/23 02:22:49;;;;;;;18.00;3.90;;;;;;;21.67;60.13;94474.34;5144106;27;20038;-83
2023/06/23 02:25:16;;;;;;;13.35;4.25;;;;;;;21.78;59.27;94467.41;5141680;27;20118;-83
2023/06/23 02:27:42;;;;;;;13.50;3.83;;;;;;;21.92;59.41;94463.59;5126374;27;20030;-83
2023/06/23 02:30:27;;;;;;;22.70;3.97;;;;;;;22.06;59.55;94472.00;5126155;27;20026;-83
2023/06/23 02:32:52;;;;;;;20.00;4.65;;;;;;;22.37;58.85;94467.91;5161934;27;20122;-83
2023/06/23 02:35:18;;;;;;;28.77;3.88;;;;;;;22.42;58.67;94459.66;5142977;27;20419;-83
2023/06/23 02:40:36;;;;;;;15.30;3.75;;;;;;;22.34;60.06;94455.25;5146222;27;20397;-84
2023/06/23 02:43:28;;;;;;;19.27;3.80;;;;;;;22.30;60.66;94449.03;5143398;27;20029;-84
2023/06/23 02:45:57;;;;;;;18.58;4.25;;;;;;;22.24;61.39;94451.16;5139545;27;20054;-83
2023/06/23 02:51:14;;;;;;;23.27;4.50;;;;;;;21.42;70.54;94461.75;5146013;27;20034;-84
2023/06/23 02:54:05;;;;;;;19.80;4.55;;;;;;;21.18;74.14;94452.69;5143043;27;20023;-84
2023/06/23 02:56:33;;;;;;;16.55;3.95;;;;;;;21.00;76.86;94457.44;5142745;27;20033;-84
2023/06/23 02:59:02;;;;;;;14.18;4.00;;;;;;;21.15;74.99;94461.31;5125881;27;20038;-84
2023/06/23 03:04:16;;;;;;;20.35;4.40;;;;;;;21.19;74.97;94458.78;5145607;27;20091;-83
2023/06/23 03:10:04;;;;;;;17.50;4.45;;;;;;;21.07;77.91;94464.09;5145518;27;20072;-83
2023/06/23 03:18:20;;;;;;;15.70;3.63;;;;;;;20.93;83.03;94467.06;5126824;27;20079;-83
2023/06/23 03:21:11;;;;;;;19.02;4.00;;;;;;;20.95;82.56;94472.84;5139567;27;20465;-83
2023/06/23 03:26:22;;;;;;;18.67;4.50;;;;;;;20.79;81.08;94465.47;5138465;27;20021;-83
2023/06/23 03:31:36;;;;;;;14.23;4.32;;;;;;;20.76;85.80;94469.56;5145236;27;20156;-84
2023/06/23 03:34:02;;;;;;;20.52;3.97;;;;;;;20.66;83.47;94463.88;5160437;27;20467;-83
2023/06/23 03:36:28;;;;;;;19.42;4.25;;;;;;;20.80;83.58;94456.38;5141931;27;20026;-84
2023/06/23 03:39:03;;;;;;;20.48;4.03;;;;;;;20.98;80.66;94462.31;5141121;27;20035;-84
2023/06/23 03:41:30;;;;;;;26.45;4.40;;;;;;;20.90;79.80;94460.53;5124914;27;20027;-84
2023/06/23 03:44:09;;;;;;;14.80;3.70;;;;;;;20.90;83.40;94463.97;5125084;27;20334;-83
2023/06/23 03:46:42;;;;;;;21.67;4.45;;;;;;;20.87;81.29;94451.31;5142114;27;20027;-84
2023/06/23 03:49:09;;;;;;;20.77;3.92;;;;;;;20.96;85.41;94456.53;5124356;27;20121;-84
2023/06/23 03:51:54;;;;;;;27.25;4.90;;;;;;;21.10;84.10;94450.13;5141824;27;20084;-84
2023/06/23 03:54:20;;;;;;;23.92;4.28;;;;;;;21.31;79.70;94442.03;5160390;27;20026;-83
2023/06/23 03:56:47;;;;;;;22.40;4.55;;;;;;;21.27;88.17;94444.56;5140716;27;20045;-84
2023/06/23 03:59:31;;;;;;;19.35;3.95;;;;;;;21.20;88.57;94449.66;5141833;27;20026;-84
2023/06/23 04:01:57;;;;;;;32.05;4.38;;;;;;;21.33;82.26;94447.78;5141779;27;20459;-84
2023/06/23 04:04:23;;;;;;;24.98;4.72;;;;;;;21.65;71.18;94436.53;5141569;27;20031;-83
2023/06/23 04:06:49;;;;;;;24.55;4.40;;;;;;;21.59;80.77;94442.09;5124660;27;20045;-84
2023/06/23 04:09:35;;;;;;;24.70;4.28;;;;;;;21.38;78.67;94439.56;5141609;27;20018;-83
2023/06/23 04:12:01;;;;;;;20.13;4.38;;;;;;;21.48;77.60;94446.31;5159970;27;20037;-83
2023/06/23 04:14:45;;;;;;;32.03;5.45;;;;;;;21.39;78.63;94445.69;5124127;27;20023;-87
2023/06/23 04:17:30;;;;;;;17.30;3.72;;;;;;;21.38;87.77;94452.13;5141519;27;20121;-87
2023/06/23 04:19:58;;;;;;;19.40;4.53;;;;;;;20.92;91.53;94438.91;5141142;27;20022;-87
2023/06/23 04:22:25;;;;;;;16.75;4.22;;;;;;;21.00;91.01;94432.66;5124937;27;20113;-87
2023/06/23 04:25:10;;;;;;;15.02;3.85;;;;;;;21.07;91.42;94442.78;5124350;27;20092;-87
2023/06/23 04:27:37;;;;;;;21.33;4.30;;;;;;;21.07;86.81;94440.91;5141467;27;20027;-87
2023/06/23 04:30:04;;;;;;;28.40;4.80;;;;;;;20.75;94.45;94443.28;5124409;27;20521;-87
2023/06/23 04:32:29;;;;;;;28.63;4.68;;;;;;;20.94;92.45;94445.44;5124127;27;20030;-88
2023/06/23 04:34:55;;;;;;;27.90;4.70;;;;;;;21.15;80.76;94447.22;5124011;27;20335;-88
2023/06/23 04:37:27;;;;;;;16.05;4.22;;;;;;;21.28;80.21;94440.00;5115140;27;20034;-83
2023/06/23 04:40:17;;;;;;;24.65;5.35;;;;;;;21.33;79.69;94437.13;5139436;27;20022;-82
2023/06/23 04:42:48;;;;;;;21.05;4.40;;;;;;;21.54;81.77;94437.00;5123916;27;20066;-83
2023/06/23 04:45:15;;;;;;;27.23;5.05;;;;;;;21.64;83.90;94429.63;5123834;27;20048;-82
2023/06/23 04:47:42;;;;;;;23.65;5.07;;;;;;;21.66;91.53;94422.91;5140928;27;20022;-82
2023/06/23 04:53:01;;;;;;;30.30;6.40;;;;;;;21.52;100.00;94420.56;5143433;27;20392;-87
2023/06/23 04:55:30;;;;;;;18.30;4.80;;;;;;;21.85;100.00;94416.19;5140455;27;20026;-83
2023/06/23 05:00:41;;;;;;;22.38;4.88;;;;;;;21.33;100.00;94411.25;5143527;27;20042;-84
2023/06/23 05:03:27;;;;;;;27.58;5.05;;;;;;;21.38;100.00;94412.16;5140976;27;20019;-83
2023/06/23 05:05:55;;;;;;;22.48;5.13;;;;;;;21.30;100.00;94414.59;5123390;27;20451;-83
2023/06/23 05:11:26;;;;;;;31.30;5.75;;;;;;;21.28;100.00;94410.69;5143169;27;20038;-83
2023/06/23 05:16:48;;;;;;;24.00;5.00;;;;;;;21.32;100.00;94423.03;5128459;27;20130;-84
2023/06/23 05:19:14;;;;;;;20.45;4.40;;;;;;;21.29;100.00;94413.03;5120170;27;20366;-84
2023/06/23 05:21:40;;;;;;;19.38;4.78;;;;;;;21.66;100.00;94412.22;5139449;27;20083;-85
2023/06/23 05:24:07;;;;;;;17.63;4.93;;;;;;;22.00;100.00;94414.69;5123126;27;20022;-84
2023/06/23 05:26:55;;;;;;;19.75;5.57;;;;;;;22.21;100.00;94421.72;5140065;27;20395;-85
2023/06/23 05:29:20;;;;;;;28.85;5.22;;;;;;;22.42;100.00;94418.84;5139749;27;20026;-84
2023/06/23 05:31:47;;;;;;;99.88;16.75;;;;;;;22.46;100.00;94414.38;5139475;27;20034;-84
2023/06/23 05:34:16;;;;;;;84.95;17.95;;;;;;;22.56;100.00;94419.22;5139897;27;20057;-84
2023/06/23 05:36:43;;;;;;;20.75;5.70;;;;;;;22.63;100.00;94413.31;5139717;27;20069;-84
2023/06/23 05:39:28;;;;;;;44.28;9.15;;;;;;;22.59;100.00;94415.91;5139944;27;20043;-84
2023/06/23 05:42:33;;;;;;;52.05;9.52;;;;;;;22.71;100.00;94417.72;5137779;27;20055;-83
2023/06/23 05:45:02;;;;;;;28.02;6.45;;;;;;;22.75;100.00;94417.81;5136157;28;20420;-84
2023/06/23 05:47:34;;;;;;;79.00;16.63;;;;;;;22.58;100.00;94411.66;5119035;28;20027;-84
2023/06/23 05:50:23;;;;;;;21.33;5.20;;;;;;;22.46;100.00;94415.16;5118893;28;20038;-84
2023/06/23 05:52:56;;;;;;;25.00;5.38;;;;;;;22.45;100.00;94418.16;5119295;28;20034;-84
2023/06/23 05:55:23;;;;;;;23.13;5.72;;;;;;;22.50;100.00;94423.28;5118777;28;20454;-84
2023/06/23 05:57:49;;;;;;;16.48;5.10;;;;;;;22.65;100.00;94420.97;5102478;28;20063;-84
2023/06/23 06:00:38;;;;;;;24.30;5.32;;;;;;;22.77;100.00;94422.78;5119332;28;20427;-83
2023/06/23 06:03:06;;;;;;;29.27;6.75;;;;;;;22.76;100.00;94415.91;5119570;28;20054;-84
2023/06/23 06:05:33;;;;;;;28.33;5.22;;;;;;;22.86;100.00;94410.81;5119312;28;20439;-83
2023/06/23 06:08:19;;;;;;;19.70;5.22;;;;;;;23.04;100.00;94423.06;5119272;28;20038;-84
2023/06/23 06:10:45;;;;;;;30.98;6.30;;;;;;;23.24;100.00;94438.03;5137486;28;20054;-85
2023/06/23 06:13:13;;;;;;;20.83;5.00;;;;;;;23.36;100.00;94431.84;5119096;28;20077;-84
2023/06/23 06:15:38;;;;;;;24.83;5.80;;;;;;;23.51;100.00;94443.63;5101988;28;20030;-85
2023/06/23 06:18:22;;;;;;;18.17;5.05;;;;;;;23.52;100.00;94450.50;5102626;28;20332;-85
2023/06/23 06:21:07;;;;;;;19.08;5.47;;;;;;;23.47;100.00;94458.06;5102300;28;20019;-86
2023/06/23 06:26:37;;;;;;;28.10;5.03;;;;;;;23.81;100.00;94467.19;5121450;28;20030;-85
2023/06/23 06:29:05;;;;;;;26.98;5.85;;;;;;;23.51;100.00;94470.34;5119098;28;20049;-86
2023/06/23 06:31:32;;;;;;;18.95;5.03;;;;;;;23.66;100.00;94470.66;5119243;28;20026;-84
2023/06/23 06:33:59;;;;;;;27.25;5.03;;;;;;;23.99;100.00;94472.91;5101609;28;20023;-84
2023/06/23 06:36:25;;;;;;;14.95;5.45;;;;;;;24.00;100.00;94479.81;5101625;28;20039;-86
2023/06/23 06:38:51;;;;;;;23.17;5.85;;;;;;;23.88;100.00;94479.16;5118892;28;20037;-86
2023/06/23 06:41:17;;;;;;;23.20;4.30;;;;;;;23.88;100.00;94476.50;5119082;27;20031;-86
2023/06/23 06:46:46;;;;;;;18.95;4.80;;;;;;;24.04;100.00;94484.50;5120209;27;20027;-85
2023/06/23 06:49:12;;;;;;;22.52;5.10;;;;;;;24.29;100.00;94485.78;5119266;28;20027;-85
2023/06/23 06:54:40;;;;;;;22.20;5.38;;;;;;;24.52;100.00;94495.78;5118728;28;20077;-86
2023/06/23 06:57:25;;;;;;;20.92;4.60;;;;;;;25.10;100.00;94496.03;5102301;28;20081;-86
2023/06/23 06:59:50;;;;;;;21.58;4.85;;;;;;;25.07;100.00;94491.41;5119463;28;20134;-86
2023/06/23 07:02:16;;;;;;;36.08;5.20;;;;;;;24.70;100.00;94493.44;5120150;28;20033;-87
2023/06/23 07:04:42;;;;;;;27.52;5.00;;;;;;;24.64;100.00;94500.19;5102049;28;20058;-87
2023/06/23 07:10:10;;;;;;;17.08;4.82;;;;;;;25.47;100.00;94494.72;5104569;28;20038;-86
2023/06/23 07:12:36;;;;;;;22.83;5.13;;;;;;;25.64;100.00;94488.09;5119865;28;20407;-86
2023/06/23 07:17:45;;;;;;;21.30;4.78;;;;;;;25.98;100.00;94488.94;5104386;28;20035;-86
2023/06/23 07:20:29;;;;;;;23.83;5.20;;;;;;;25.77;100.00;94489.44;5118586;28;20445;-86
2023/06/23 07:22:56;;;;;;;21.73;5.18;;;;;;;25.36;100.00;94494.53;5119718;28;20119;-86
2023/06/23 07:25:40;;;;;;;81.82;16.77;;;;;;;25.82;93.95;94499.88;5101221;28;20020;-86
2023/06/23 07:28:05;;;;;;;20.45;5.88;;;;;;;25.92;100.00;94503.84;5101639;28;20428;-87
2023/06/23 07:30:31;;;;;;;23.33;5.88;;;;;;;26.30;94.14;94500.47;5093600;27;20030;-86
2023/06/23 07:32:56;;;;;;;20.45;5.35;;;;;;;26.05;91.69;94496.31;5140339;27;20365;-85
2023/06/23 07:35:22;;;;;;;30.05;6.55;;;;;;;25.94;86.67;94492.72;5121396;27;20463;-86
2023/06/23 07:37:47;;;;;;;100.50;21.83;;;;;;;26.72;81.29;94502.09;5121596;27;20043;-86
2023/06/23 07:49:21;;;;;;;23.08;5.50;;;;;;;25.91;83.26;94488.09;5124130;27;20531;-86
2023/06/23 07:54:31;;;;;;;18.33;5.63;;;;;;;26.09;80.94;94483.72;5123991;27;20389;-86
2023/06/23 07:56:58;;;;;;;16.52;4.82;;;;;;;26.22;87.83;94478.13;5121274;27;20019;-86
2023/06/23 07:59:26;;;;;;;29.90;4.78;;;;;;;26.28;83.62;94476.69;5116317;28;20030;-86
2023/06/23 08:01:52;;;;;;;15.95;5.00;;;;;;;26.75;84.19;94476.41;5104615;27;20023;-86
2023/06/23 08:04:18;;;;;;;19.42;4.25;;;;;;;26.48;83.46;94479.22;5121114;27;20023;-86
2023/06/23 08:06:43;;;;;;;22.85;5.40;;;;;;;26.75;80.12;94482.56;5120977;27;20023;-86
2023/06/23 08:09:09;;;;;;;25.13;5.00;;;;;;;26.98;84.69;94472.84;5120534;27;20027;-86
2023/06/23 08:11:35;;;;;;;22.90;5.68;;;;;;;25.95;89.80;94476.25;5138632;27;20035;-86
2023/06/23 08:14:19;;;;;;;21.85;4.88;;;;;;;26.01;91.10;94473.25;5121191;27;20019;-86
2023/06/23 08:17:04;;;;;;;21.02;5.57;;;;;;;25.95;94.01;94470.09;5082802;28;20093;-86
2023/06/23 08:19:30;;;;;;;18.63;4.70;;;;;;;26.39;92.16;94474.13;5110107;27;20023;-85
2023/06/23 08:21:55;;;;;;;28.15;5.15;;;;;;;25.78;91.84;94466.81;5099273;27;20118;-86
2023/06/23 08:29:49;;;;;;;26.75;5.32;;;;;;;26.58;91.87;94470.50;5102955;28;20352;-86
2023/06/23 08:32:16;;;;;;;21.08;4.43;;;;;;;26.80;86.49;94465.31;5100361;28;20027;-86
2023/06/23 08:34:42;;;;;;;22.13;5.10;;;;;;;26.58;86.44;94467.81;5100522;28;20023;-86
2023/06/23 08:37:07;;;;;;;20.48;4.80;;;;;;;26.79;91.67;94463.78;5118153;28;20034;-85
2023/06/23 08:42:17;;;;;;;26.98;4.90;;;;;;;26.59;89.82;94472.03;5123302;27;20030;-86
2023/06/23 08:45:03;;;;;;;26.83;5.70;;;;;;;26.72;95.25;94471.78;5103100;27;20018;-86
2023/06/23 08:47:48;;;;;;;23.77;5.20;;;;;;;26.42;100.00;94476.06;5120203;27;20019;-86
2023/06/23 08:50:15;;;;;;;23.90;5.38;;;;;;;26.51;97.87;94470.41;5099821;28;20034;-86
2023/06/23 08:52:41;;;;;;;20.83;5.45;;;;;;;26.79;87.75;94469.16;5122843;27;20089;-86
2023/06/23 08:55:08;;;;;;;22.60;5.65;;;;;;;26.81;95.52;94466.88;5099381;28;20031;-85
2023/06/23 08:57:34;;;;;;;26.20;5.50;;;;;;;26.10;100.00;94471.06;5138199;27;20023;-86
2023/06/23 08:59:59;;;;;;;25.05;5.28;;;;;;;26.76;94.00;94470.69;5120108;27;20030;-86
2023/06/23 09:02:25;;;;;;;20.95;5.35;;;;;;;26.65;86.13;94472.50;5136885;27;20027;-85
2023/06/23 09:04:50;;;;;;;26.55;5.68;;;;;;;26.93;98.10;94471.25;5119269;27;20054;-85
2023/06/23 09:07:16;;;;;;;19.67;5.38;;;;;;;27.17;88.48;94472.59;5103102;27;20058;-85
2023/06/23 09:09:45;;;;;;;24.33;5.18;;;;;;;27.06;97.34;94472.53;5103152;27;20110;-86
2023/06/23 09:12:11;;;;;;;24.48;5.28;;;;;;;27.15;96.31;94466.81;5103349;27;20443;-85
2023/06/23 09:14:37;;;;;;;24.85;5.63;;;;;;;27.12;92.56;94467.56;5119268;27;20038;-85
2023/06/23 09:17:03;;;;;;;24.27;5.50;;;;;;;26.83;93.37;94467.28;5138004;27;20040;-86
2023/06/23 09:19:32;;;;;;;18.50;5.00;;;;;;;27.50;89.53;94462.09;5131149;27;20031;-85
2023/06/23 09:21:59;;;;;;;24.15;5.55;;;;;;;27.43;90.47;94462.03;5115794;27;20020;-85
2023/06/23 09:24:38;;;;;;;15.77;5.20;;;;;;;27.50;92.29;94464.78;5117382;27;20451;-86
2023/06/23 09:27:03;;;;;;;17.83;6.10;;;;;;;27.56;91.92;94459.84;5101208;27;20023;-85
2023/06/23 09:29:29;;;;;;;17.77;5.40;;;;;;;27.94;88.92;94465.81;5138150;27;20042;-85
2023/06/23 09:31:55;;;;;;;19.63;5.68;;;;;;;27.83;81.20;94464.97;5137827;27;20027;-85
2023/06/23 09:34:25;;;;;;;20.48;5.53;;;;;;;27.94;83.00;94463.91;5119543;27;20460;-85
2023/06/23 09:36:52;;;;;;;18.25;4.93;;;;;;;28.36;77.78;94469.88;5119512;27;20019;-84
2023/06/23 09:39:18;;;;;;;22.63;4.85;;;;;;;28.30;79.14;94465.22;5110051;28;20027;-85
2023/06/23 09:41:54;;;;;;;18.13;4.80;;;;;;;29.14;75.96;94468.88;5102398;27;20443;-85
2023/06/23 09:44:19;;;;;;;21.55;5.07;;;;;;;28.72;74.51;94463.81;5111160;28;20125;-85
2023/06/23 09:47:04;;;;;;;24.10;5.68;;;;;;;28.16;75.08;94472.06;5119253;28;20118;-85
2023/06/23 09:49:44;;;;;;;21.50;6.07;;;;;;;29.19;73.32;94455.00;5102414;28;20031;-85
2023/06/23 09:52:13;;;;;;;17.52;4.95;;;;;;;29.37;72.40;94455.00;5119558;28;20046;-85
2023/06/23 09:54:40;;;;;;;15.35;5.00;;;;;;;29.89;69.97;94459.94;5119095;28;20023;-90
2023/06/23 09:57:13;;;;;;;18.00;5.78;;;;;;;30.02;71.50;94460.31;5118375;28;20031;-86
2023/06/23 09:59:40;;;;;;;21.65;5.55;;;;;;;28.84;72.70;94453.84;5119368;28;20068;-86
2023/06/23 10:02:07;;;;;;;18.65;5.28;;;;;;;29.88;67.00;94453.00;5102289;28;20038;-86
2023/06/23 10:05:01;;;;;;;23.20;4.93;;;;;;;30.12;68.69;94455.28;5119079;28;20034;-85
2023/06/23 10:07:45;;;;;;;24.25;5.03;;;;;;;29.61;66.48;94450.00;5119139;28;20377;-85
2023/06/23 10:10:11;;;;;;;24.38;5.10;;;;;;;29.36;69.96;94450.78;5122019;28;20091;-85
2023/06/23 10:12:39;;;;;;;22.90;5.43;;;;;;;28.61;73.27;94455.72;5119348;28;20027;-86
2023/06/23 10:15:05;;;;;;;27.67;6.18;;;;;;;28.74;74.57;94450.72;5119190;28;20027;-85
2023/06/23 10:17:31;;;;;;;63.20;7.70;;;;;;;28.14;86.21;94449.38;5123107;27;20027;-85
2023/06/23 10:22:41;;;;;;;22.50;5.85;;;;;;;28.47;84.84;94448.34;5141544;27;20504;-86
2023/06/23 10:25:09;;;;;;;25.50;5.93;;;;;;;27.57;92.99;94443.31;5123143;27;20019;-86
2023/06/23 10:27:36;;;;;;;21.05;5.80;;;;;;;26.43;100.00;94447.31;5105647;27;20024;-86
2023/06/23 10:30:03;;;;;;;25.92;5.80;;;;;;;25.94;100.00;94444.41;5122906;27;20072;-86
2023/06/23 10:32:29;;;;;;;25.80;5.43;;;;;;;26.65;100.00;94442.94;5122886;27;20063;-85
2023/06/23 10:37:49;;;;;;;26.50;5.35;;;;;;;26.22;100.00;94441.34;5141054;27;20056;-85
2023/06/23 10:40:34;;;;;;;17.05;5.40;;;;;;;27.51;95.69;94436.72;5105939;27;20115;-85
2023/06/23 10:43:19;;;;;;;19.63;5.20;;;;;;;27.23;100.00;94436.13;5140117;27;20492;-85
2023/06/23 10:45:45;;;;;;;25.55;6.10;;;;;;;26.52;100.00;94442.41;5122027;27;20332;-85
2023/06/23 10:48:11;;;;;;;19.48;5.05;;;;;;;26.29;100.00;94446.00;5105737;27;20448;-86
2023/06/23 10:50:39;;;;;;;18.00;5.13;;;;;;;26.41;100.00;94453.03;5122480;27;20125;-85
2023/06/23 10:56:03;;;;;;;21.55;5.72;;;;;;;26.05;100.00;94458.75;5125254;27;20038;-85
2023/06/23 10:58:50;;;;;;;21.63;5.57;;;;;;;26.08;100.00;94463.38;5139367;27;20451;-85
2023/06/23 11:01:16;;;;;;;23.77;5.72;;;;;;;26.08;100.00;94452.63;5105653;27;20023;-85
2023/06/23 11:03:41;;;;;;;14.52;5.05;;;;;;;26.02;100.00;94456.78;5140515;27;20034;-85
2023/06/23 11:06:11;;;;;;;20.35;6.15;;;;;;;26.18;100.00;94448.59;5140036;27;20019;-86
2023/06/23 11:08:44;;;;;;;20.63;5.57;;;;;;;26.39;99.49;94448.03;5105270;27;20027;-85
2023/06/23 11:11:11;;;;;;;20.35;5.75;;;;;;;26.52;96.76;94443.19;5122414;27;20033;-85
2023/06/23 11:13:47;;;;;;;25.33;6.30;;;;;;;25.18;100.00;94433.38;5122116;27;20039;-85
2023/06/23 11:16:17;;;;;;;17.70;4.53;;;;;;;24.21;100.00;94437.81;5121893;27;20034;-84
2023/06/23 11:18:50;;;;;;;20.27;5.53;;;;;;;24.80;100.00;94445.78;5122328;27;20019;-84
2023/06/23 11:21:28;;;;;;;20.40;5.63;;;;;;;24.99;100.00;94451.09;5121899;27;20378;-84
2023/06/23 11:24:06;;;;;;;13.90;5.00;;;;;;;24.20;100.00;94458.47;5105016;27;20026;-84
2023/06/23 11:26:31;;;;;;;15.57;4.57;;;;;;;24.04;100.00;94463.09;5140189;27;20105;-84
2023/06/23 11:28:57;;;;;;;16.83;5.00;;;;;;;24.06;100.00;94466.97;5121344;27;20027;-84
2023/06/23 11:31:27;;;;;;;17.98;4.55;;;;;;;24.71;100.00;94457.47;5121890;27;20027;-84
2023/06/23 11:33:55;;;;;;;11.77;3.80;;;;;;;25.10;100.00;94458.50;5122377;27;20075;-84
2023/06/23 11:36:24;;;;;;;11.93;4.18;;;;;;;25.73;100.00;94469.03;5139971;27;20023;-84
2023/06/23 11:38:50;;;;;;;17.77;5.18;;;;;;;25.75;100.00;94472.94;5121535;27;20026;-85
2023/06/23 11:41:32;;;;;;;20.48;4.78;;;;;;;25.86;100.00;94470.38;5104833;27;20026;-85
2023/06/23 11:46:42;;;;;;;17.55;4.18;;;;;;;25.48;100.00;94478.28;5124248;27;20592;-84
2023/06/23 11:52:05;;;;;;;12.65;4.75;;;;;;;24.84;100.00;94460.78;5124224;27;20146;-85
2023/06/23 11:54:33;;;;;;;9.52;4.20;;;;;;;24.39;100.00;94440.81;5120704;27;20121;-85
2023/06/23 11:57:36;;;;;;;18.90;4.60;;;;;;;23.37;100.00;94438.75;5104717;27;20061;-85
2023/06/23 12:00:05;;;;;;;13.88;3.63;;;;;;;23.32;100.00;94448.91;5139605;27;20111;-86
2023/06/23 12:02:30;;;;;;;8.35;3.38;;;;;;;22.36;100.00;94468.25;5121542;27;20486;-85
2023/06/23 12:04:59;;;;;;;13.27;4.20;;;;;;;22.07;100.00;94496.81;5139061;27;20057;-85
2023/06/23 12:10:09;;;;;;;11.15;3.60;;;;;;;22.24;100.00;94487.78;5123838;27;20339;-84
2023/06/23 12:12:34;;;;;;;14.52;3.95;;;;;;;22.21;100.00;94467.88;5121169;27;20125;-84
2023/06/23 12:15:00;;;;;;;14.77;5.38;;;;;;;21.46;100.00;94473.31;5120215;27;20027;-84
2023/06/23 12:23:16;;;;;;;36.50;7.82;;;;;;;18.39;100.00;94559.22;5123938;27;20030;-87
2023/06/23 12:25:44;;;;;;;37.78;7.93;;;;;;;17.66;100.00;94565.78;5121145;27;20045;-89
2023/06/23 12:28:18;;;;;;;26.50;7.45;;;;;;;17.29;100.00;94551.94;5104514;27;20029;-89
2023/06/23 12:31:21;;;;;;;808.50;53.47;;;;;;;17.35;100.00;94540.88;5139438;27;20035;-89
2023/06/23 12:33:50;;;;;;;51.05;9.43;;;;;;;17.45;100.00;94542.50;5120884;27;20487;-87
2023/06/23 12:41:48;;;;;;;21.50;7.47;;;;;;;17.34;100.00;94528.72;5138858;27;20054;-87
2023/06/23 12:44:13;;;;;;;22.80;7.00;;;;;;;17.14;100.00;94529.28;5120996;27;20034;-87
2023/06/23 12:46:39;;;;;;;17.88;6.88;;;;;;;17.25;100.00;94541.16;5138778;27;20023;-87
2023/06/23 12:49:09;;;;;;;23.10;7.45;;;;;;;17.05;100.00;94577.66;5103827;27;20054;-87
2023/06/23 12:51:36;;;;;;;22.08;8.20;;;;;;;17.31;100.00;94600.06;5104190;27;20328;-86
2023/06/23 12:54:01;;;;;;;21.90;10.02;;;;;;;17.65;100.00;94601.31;5100187;28;20108;-86
2023/06/23 12:56:45;;;;;;;43.85;11.85;;;;;;;17.94;100.00;94603.44;5099943;28;20114;-89
2023/06/23 12:59:11;;;;;;;31.58;12.07;;;;;;;18.00;100.00;94572.22;5100209;28;20543;-89
2023/06/23 13:01:38;;;;;;;34.08;12.13;;;;;;;18.33;100.00;94579.81;5083510;28;20051;-88
2023/06/23 13:04:04;;;;;;;61.92;15.10;;;;;;;18.47;100.00;94592.16;5083485;28;20126;-89
2023/06/23 13:06:48;;;;;;;67.13;14.82;;;;;;;18.72;100.00;94618.97;5082778;28;20085;-89
2023/06/23 13:09:15;;;;;;;48.05;14.98;;;;;;;18.45;100.00;94621.63;5085759;28;20027;-90
2023/06/23 13:15:07;;;;;;;43.50;15.18;;;;;;;18.74;100.00;94644.13;5117784;28;20047;-90
2023/06/23 13:17:38;;;;;;;32.85;12.23;;;;;;;18.69;100.00;94636.31;5083537;28;20039;-91
2023/06/23 13:20:06;;;;;;;39.30;12.25;;;;;;;18.71;100.00;94620.06;5101040;28;20024;-90
2023/06/23 13:22:35;;;;;;;29.48;11.68;;;;;;;18.78;100.00;94628.34;5100622;28;20023;-91
2023/06/23 13:25:00;;;;;;;23.50;11.55;;;;;;;18.75;100.00;94629.75;5083495;28;20023;-90
2023/06/23 13:27:33;;;;;;;38.80;14.63;;;;;;;18.86;100.00;94635.50;5109176;27;20045;-91
2023/06/23 13:30:00;;;;;;;57.65;13.68;;;;;;;19.06;100.00;94622.75;5104084;27;20031;-90
2023/06/23 13:32:26;;;;;;;23.88;10.93;;;;;;;18.77;100.00;94598.34;5120247;27;20027;-89
2023/06/23 13:37:37;;;;;;;28.83;12.45;;;;;;;18.83;100.00;94563.72;5108393;27;20056;-89
2023/06/23 13:40:10;;;;;;;47.88;15.30;;;;;;;19.04;100.00;94577.91;5120941;27;20087;-91